createdAt,value
2019-01-13T00:00:15.906Z,8.57
2019-01-13T00:02:44.471Z,8.60
2019-01-13T00:05:13.279Z,8.50
2019-01-13T00:07:41.759Z,8.93
2019-01-13T00:10:10.295Z,8.70
2019-01-13T00:12:38.853Z,9.10
2019-01-13T00:15:09.369Z,8.93
2019-01-13T00:17:37.810Z,8.77
2019-01-13T00:20:09.011Z,8.97
2019-01-13T00:22:37.720Z,9.33
2019-01-13T00:25:06.664Z,8.90
2019-01-13T00:27:35.180Z,8.90
2019-01-13T00:30:21.963Z,8.70
2019-01-13T00:32:45.774Z,9.13
2019-01-13T00:35:14.335Z,8.73
2019-01-13T00:37:43.447Z,9.00
2019-01-13T00:40:15.273Z,9.13
2019-01-13T00:42:44.099Z,8.83
2019-01-13T00:45:13.884Z,9.23
2019-01-13T00:47:42.601Z,8.67
2019-01-13T00:50:15.027Z,8.80
2019-01-13T00:52:44.583Z,9.80
2019-01-13T00:55:15.288Z,8.73
2019-01-13T00:57:46.199Z,10.27
2019-01-13T01:00:28.814Z,9.67
2019-01-13T01:02:57.878Z,9.90
2019-01-13T01:05:26.442Z,8.57
2019-01-13T01:07:55.397Z,8.70
2019-01-13T01:10:26.579Z,9.10
2019-01-13T01:12:58.619Z,7.73
2019-01-13T01:15:27.238Z,8.50
2019-01-13T01:17:55.879Z,9.03
2019-01-13T01:20:24.707Z,8.47
2019-01-13T01:22:53.255Z,8.97
2019-01-13T01:25:21.888Z,8.47
2019-01-13T01:27:50.697Z,7.90
2019-01-13T01:30:20.138Z,7.63
2019-01-13T01:32:49.231Z,8.00
2019-01-13T01:35:18.396Z,7.60
2019-01-13T01:37:47.235Z,8.43
2019-01-13T01:40:17.668Z,8.17
2019-01-13T01:42:46.267Z,7.57
2019-01-13T01:45:16.975Z,8.63
2019-01-13T01:47:45.620Z,7.87
2019-01-13T01:50:14.233Z,8.20
2019-01-13T01:52:42.827Z,7.80
2019-01-13T01:55:13.763Z,8.00
2019-01-13T01:57:42.273Z,7.73
2019-01-13T02:00:13.873Z,7.87
2019-01-13T02:02:42.552Z,7.80
2019-01-13T02:05:11.128Z,7.60
2019-01-13T02:07:39.689Z,8.30
2019-01-13T02:10:11.580Z,8.17
2019-01-13T02:12:53.772Z,8.00
2019-01-13T02:15:34.873Z,7.90
2019-01-13T02:18:03.538Z,7.50
2019-01-13T02:20:32.232Z,8.40
2019-01-13T02:23:00.783Z,7.50
2019-01-13T02:25:29.583Z,8.07
2019-01-13T02:27:58.102Z,8.00
2019-01-13T02:30:27.628Z,7.60
2019-01-13T02:32:56.385Z,7.73
2019-01-13T02:35:25.002Z,7.97
2019-01-13T02:37:53.606Z,7.97
2019-01-13T02:40:22.457Z,7.93
2019-01-13T02:42:51.523Z,7.60
2019-01-13T02:45:22.546Z,7.97
2019-01-13T02:47:50.997Z,8.30
2019-01-13T02:50:19.519Z,8.07
2019-01-13T02:52:48.052Z,7.80
2019-01-13T02:55:16.558Z,7.80
2019-01-13T02:57:45.100Z,8.07
2019-01-13T03:00:21.618Z,8.23
2019-01-13T03:02:50.534Z,8.23
2019-01-13T03:05:19.180Z,8.70
2019-01-13T03:07:47.750Z,8.80
2019-01-13T03:10:18.608Z,8.23
2019-01-13T03:12:47.148Z,8.80
2019-01-13T03:15:19.926Z,8.70
2019-01-13T03:17:48.887Z,8.90
2019-01-13T03:20:17.570Z,8.47
2019-01-13T03:22:46.070Z,8.50
2019-01-13T03:25:16.724Z,8.43
2019-01-13T03:27:45.229Z,7.90
2019-01-13T03:30:19.044Z,8.50
2019-01-13T03:32:47.556Z,8.60
2019-01-13T03:35:16.773Z,8.87
2019-01-13T03:37:45.375Z,8.40
2019-01-13T03:40:16.411Z,8.50
2019-01-13T03:42:45.183Z,8.30
2019-01-13T03:45:13.926Z,8.87
2019-01-13T03:47:42.407Z,8.30
2019-01-13T03:50:16.426Z,8.90
2019-01-13T03:52:52.437Z,8.73
2019-01-13T03:55:16.293Z,8.10
2019-01-13T03:57:44.845Z,8.93
2019-01-13T04:00:16.026Z,8.30
2019-01-13T04:02:44.612Z,8.33
2019-01-13T04:05:13.506Z,8.70
2019-01-13T04:07:41.959Z,8.73
2019-01-13T04:10:12.700Z,8.60
2019-01-13T04:12:41.227Z,9.10
2019-01-13T04:15:12.843Z,8.20
2019-01-13T04:17:41.430Z,8.93
2019-01-13T04:20:10.039Z,8.40
2019-01-13T04:22:38.605Z,8.40
2019-01-13T04:25:07.361Z,8.60
2019-01-13T04:27:35.958Z,8.57
2019-01-13T04:30:07.798Z,8.60
2019-01-13T04:32:36.278Z,9.03
2019-01-13T04:35:07.200Z,8.60
2019-01-13T04:37:35.785Z,8.80
2019-01-13T04:40:07.646Z,8.40
2019-01-13T04:42:36.251Z,8.80
2019-01-13T04:45:07.169Z,8.77
2019-01-13T04:47:35.650Z,8.27
2019-01-13T04:50:07.437Z,8.60
2019-01-13T04:52:36.037Z,8.77
2019-01-13T04:55:06.146Z,8.20
2019-01-13T04:57:34.589Z,9.17
2019-01-13T05:00:04.646Z,8.57
2019-01-13T05:02:33.191Z,8.93
2019-01-13T05:05:01.761Z,8.90
2019-01-13T05:07:30.206Z,8.80
2019-01-13T05:09:58.768Z,8.97
2019-01-13T05:12:27.899Z,8.60
2019-01-13T05:14:56.514Z,8.83
2019-01-13T05:17:24.987Z,9.10
2019-01-13T05:19:53.545Z,8.93
2019-01-13T05:22:22.428Z,9.17
2019-01-13T05:24:51.296Z,9.10
2019-01-13T05:27:19.888Z,8.60
2019-01-13T05:29:48.441Z,8.60
2019-01-13T05:32:16.979Z,8.77
2019-01-13T05:34:45.433Z,8.37
2019-01-13T05:37:13.984Z,8.80
2019-01-13T05:39:42.506Z,8.50
2019-01-13T05:42:11.459Z,8.30
2019-01-13T05:44:40.231Z,8.63
2019-01-13T05:47:08.780Z,9.00
2019-01-13T05:49:37.302Z,9.00
2019-01-13T05:52:06.007Z,8.50
2019-01-13T05:54:34.518Z,8.87
2019-01-13T05:57:03.190Z,8.70
2019-01-13T05:59:31.770Z,8.60
2019-01-13T06:02:00.386Z,8.40
2019-01-13T06:04:28.972Z,9.07
2019-01-13T06:06:57.438Z,8.43
2019-01-13T06:09:26.005Z,8.87
2019-01-13T06:11:54.516Z,8.50
2019-01-13T06:14:23.072Z,7.93
2019-01-13T06:16:51.590Z,9.07
2019-01-13T06:19:20.219Z,8.37
2019-01-13T06:21:48.777Z,8.40
2019-01-13T06:24:17.392Z,8.53
2019-01-13T06:26:46.182Z,8.40
2019-01-13T06:29:14.672Z,8.50
2019-01-13T06:31:43.198Z,9.30
2019-01-13T06:34:11.783Z,9.27
2019-01-13T06:36:40.447Z,8.27
2019-01-13T06:39:09.403Z,9.83
2019-01-13T06:41:37.968Z,8.40
2019-01-13T06:44:06.442Z,8.60
2019-01-13T06:46:35.167Z,8.60
2019-01-13T06:49:04.257Z,9.07
2019-01-13T06:51:32.805Z,8.93
2019-01-13T06:54:01.456Z,9.00
2019-01-13T06:56:32.311Z,8.43
2019-01-13T06:59:00.852Z,8.67
2019-01-13T07:01:29.538Z,8.57
2019-01-13T07:03:58.024Z,8.30
2019-01-13T07:06:26.640Z,9.47
2019-01-13T07:08:55.125Z,9.80
2019-01-13T07:11:23.583Z,8.83
2019-01-13T07:13:52.050Z,8.63
2019-01-13T07:16:20.721Z,9.30
2019-01-13T07:18:49.230Z,8.20
2019-01-13T07:21:18.137Z,8.20
2019-01-13T07:23:46.972Z,9.00
2019-01-13T07:26:15.492Z,8.73
2019-01-13T07:28:43.984Z,8.30
2019-01-13T07:31:12.631Z,8.80
2019-01-13T07:33:41.088Z,8.97
2019-01-13T07:36:09.642Z,8.40
2019-01-13T07:38:38.169Z,8.80
2019-01-13T07:41:06.941Z,8.77
2019-01-13T07:43:35.477Z,8.73
2019-01-13T07:46:04.001Z,8.90
2019-01-13T07:48:32.454Z,9.00
2019-01-13T07:51:01.011Z,8.60
2019-01-13T07:53:29.801Z,8.40
2019-01-13T07:55:58.486Z,9.00
2019-01-13T07:58:27.145Z,9.03
2019-01-13T08:00:55.950Z,7.80
2019-01-13T08:03:26.051Z,8.23
2019-01-13T08:05:54.559Z,8.23
2019-01-13T08:08:23.038Z,8.57
2019-01-13T08:10:51.780Z,8.57
2019-01-13T08:13:20.431Z,8.20
2019-01-13T08:15:48.936Z,8.70
2019-01-13T08:18:17.763Z,8.30
2019-01-13T08:20:46.312Z,10.20
2019-01-13T08:23:14.753Z,8.60
2019-01-13T08:25:43.371Z,9.27
2019-01-13T08:28:11.920Z,8.40
2019-01-13T08:30:40.462Z,9.47
2019-01-13T08:33:09.025Z,8.83
2019-01-13T08:35:37.589Z,9.00
2019-01-13T08:38:06.736Z,8.73
2019-01-13T08:40:35.339Z,8.90
2019-01-13T08:43:03.877Z,9.90
2019-01-13T08:45:32.545Z,9.50
2019-01-13T08:48:01.184Z,9.40
2019-01-13T08:50:30.002Z,9.80
2019-01-13T08:52:58.775Z,9.60
2019-01-13T08:55:27.380Z,9.70
2019-01-13T08:57:55.958Z,9.40
2019-01-13T09:00:26.685Z,9.70
2019-01-13T09:02:55.203Z,9.73
2019-01-13T09:05:23.955Z,9.90
2019-01-13T09:07:52.878Z,9.47
2019-01-13T09:10:21.607Z,10.87
2019-01-13T09:12:56.659Z,10.50
2019-01-13T09:15:22.770Z,9.90
2019-01-13T09:17:51.562Z,9.60
2019-01-13T09:20:24.954Z,10.43
2019-01-13T09:22:53.546Z,10.40
2019-01-13T09:25:22.226Z,10.37
2019-01-13T09:27:50.823Z,10.33
2019-01-13T09:30:22.351Z,10.80
2019-01-13T09:32:51.015Z,10.33
2019-01-13T09:35:20.130Z,12.10
2019-01-13T09:37:49.296Z,11.27
2019-01-13T09:40:21.098Z,11.40
2019-01-13T09:42:49.669Z,11.10
2019-01-13T09:45:18.332Z,11.70
2019-01-13T09:47:46.885Z,10.63
2019-01-13T09:50:20.331Z,11.23
2019-01-13T09:52:48.982Z,10.43
2019-01-13T09:55:19.516Z,10.20
2019-01-13T09:57:48.422Z,10.83
2019-01-13T10:00:20.066Z,10.70
2019-01-13T10:02:50.122Z,10.30
2019-01-13T10:05:18.594Z,10.07
2019-01-13T10:07:47.208Z,10.00
2019-01-13T10:10:15.856Z,9.43
2019-01-13T10:12:44.516Z,9.97
2019-01-13T10:15:16.130Z,9.97
2019-01-13T10:17:44.768Z,9.30
2019-01-13T10:20:15.546Z,9.77
2019-01-13T10:22:46.992Z,9.43
2019-01-13T10:25:15.822Z,9.73
2019-01-13T10:27:44.396Z,9.40
2019-01-13T10:30:18.704Z,9.70
2019-01-13T10:32:54.378Z,9.87
2019-01-13T10:35:17.941Z,9.50
2019-01-13T10:37:49.401Z,9.93
2019-01-13T10:40:23.007Z,12.70
2019-01-13T10:42:51.868Z,9.83
2019-01-13T10:45:20.583Z,9.53
2019-01-13T10:47:49.173Z,9.30
2019-01-13T10:50:22.819Z,9.60
2019-01-13T10:52:51.544Z,9.70
2019-01-13T10:55:20.149Z,9.10
2019-01-13T10:57:48.605Z,9.40
2019-01-13T11:00:26.049Z,9.50
2019-01-13T11:03:01.725Z,9.67
2019-01-13T11:05:25.084Z,10.43
2019-01-13T11:07:54.460Z,9.00
2019-01-13T11:10:23.316Z,9.20
2019-01-13T11:12:51.892Z,9.10
2019-01-13T11:15:21.725Z,9.10
2019-01-13T11:17:50.588Z,9.00
2019-01-13T11:20:27.956Z,9.30
2019-01-13T11:22:56.703Z,9.47
2019-01-13T11:25:25.256Z,9.20
2019-01-13T11:27:53.989Z,9.27
2019-01-13T11:30:25.090Z,8.80
2019-01-13T11:32:53.807Z,8.73
2019-01-13T11:35:22.546Z,9.20
2019-01-13T11:37:51.185Z,8.90
2019-01-13T11:40:24.983Z,9.27
2019-01-13T11:42:53.684Z,8.60
2019-01-13T11:45:22.333Z,8.90
2019-01-13T11:47:50.963Z,8.00
2019-01-13T11:50:24.307Z,8.47
2019-01-13T11:52:52.883Z,9.10
2019-01-13T11:55:22.009Z,8.43
2019-01-13T11:57:50.611Z,8.57
2019-01-13T12:00:24.936Z,8.93
2019-01-13T12:02:53.543Z,8.50
2019-01-13T12:05:22.273Z,8.00
2019-01-13T12:07:51.005Z,8.20
2019-01-13T12:10:22.864Z,7.70
2019-01-13T12:12:51.520Z,7.57
2019-01-13T12:15:21.475Z,7.90
2019-01-13T12:17:50.120Z,7.67
2019-01-13T12:20:21.210Z,8.27
2019-01-13T12:22:50.002Z,8.00
2019-01-13T12:25:20.469Z,7.73
2019-01-13T12:27:49.040Z,7.80
2019-01-13T12:30:20.810Z,7.90
2019-01-13T12:32:49.259Z,7.63
2019-01-13T12:35:17.988Z,8.10
2019-01-13T12:37:46.513Z,8.77
2019-01-13T12:40:17.301Z,8.10
2019-01-13T12:42:46.178Z,8.10
2019-01-13T12:45:19.668Z,7.80
2019-01-13T12:47:48.351Z,7.60
2019-01-13T12:50:22.738Z,7.97
2019-01-13T12:52:51.457Z,8.30
2019-01-13T12:55:19.982Z,8.30
2019-01-13T12:57:48.563Z,8.10
2019-01-13T13:00:18.856Z,8.03
2019-01-13T13:02:47.573Z,8.03
2019-01-13T13:05:16.866Z,8.27
2019-01-13T13:07:46.073Z,8.03
2019-01-13T13:10:26.927Z,8.20
2019-01-13T13:12:55.588Z,8.10
2019-01-13T13:15:24.227Z,7.90
2019-01-13T13:17:52.761Z,8.80
2019-01-13T13:20:21.647Z,8.33
2019-01-13T13:22:50.268Z,8.50
2019-01-13T13:25:18.845Z,8.70
2019-01-13T13:27:47.792Z,8.47
2019-01-13T13:30:19.336Z,9.50
2019-01-13T13:32:48.056Z,10.00
2019-01-13T13:35:17.148Z,9.57
2019-01-13T13:37:45.886Z,10.53
2019-01-13T13:40:17.491Z,9.40
2019-01-13T13:42:46.181Z,9.70
2019-01-13T13:45:14.766Z,9.90
2019-01-13T13:47:43.676Z,9.87
2019-01-13T13:50:21.236Z,10.00
2019-01-13T13:52:49.855Z,9.63
2019-01-13T13:55:18.685Z,10.27
2019-01-13T13:57:47.325Z,10.30
2019-01-13T14:00:18.892Z,9.50
2019-01-13T14:02:47.567Z,9.87
2019-01-13T14:05:16.320Z,9.60
2019-01-13T14:07:45.219Z,9.37
2019-01-13T14:10:22.452Z,9.77
2019-01-13T14:12:51.099Z,9.50
2019-01-13T14:15:19.687Z,10.00
2019-01-13T14:17:48.331Z,9.37
2019-01-13T14:20:20.342Z,10.10
2019-01-13T14:22:48.976Z,10.10
2019-01-13T14:25:17.563Z,9.73
2019-01-13T14:27:46.145Z,10.10
2019-01-13T14:30:17.391Z,9.63
2019-01-13T14:32:46.013Z,9.97
2019-01-13T14:35:14.583Z,9.60
2019-01-13T14:37:43.628Z,9.70
2019-01-13T14:40:15.282Z,9.10
2019-01-13T14:42:44.135Z,10.43
2019-01-13T14:45:15.169Z,9.10
2019-01-13T14:47:43.732Z,9.10
2019-01-13T14:50:15.568Z,9.27
2019-01-13T14:52:44.218Z,9.40
2019-01-13T14:55:12.953Z,9.13
2019-01-13T14:57:41.499Z,9.30
2019-01-13T15:00:13.387Z,9.23
2019-01-13T15:02:41.883Z,8.80
2019-01-13T15:05:12.464Z,8.90
2019-01-13T15:07:41.182Z,8.77
2019-01-13T15:10:12.648Z,9.27
2019-01-13T15:12:41.618Z,8.80
2019-01-13T15:15:12.617Z,8.90
2019-01-13T15:17:41.489Z,8.30
2019-01-13T15:20:16.147Z,8.70
2019-01-13T15:22:44.992Z,8.23
2019-01-13T15:25:16.517Z,8.50
2019-01-13T15:27:49.821Z,9.10
2019-01-13T15:30:20.898Z,8.40
2019-01-13T15:32:49.558Z,8.70
2019-01-13T15:35:18.182Z,8.27
2019-01-13T15:37:46.834Z,8.50
2019-01-13T15:40:17.545Z,8.70
2019-01-13T15:42:46.200Z,8.30
2019-01-13T15:45:15.866Z,8.60
2019-01-13T15:47:44.500Z,8.07
2019-01-13T15:50:18.091Z,8.40
2019-01-13T15:52:46.680Z,8.20
2019-01-13T15:55:15.392Z,8.80
2019-01-13T15:57:44.001Z,8.73
2019-01-13T16:00:15.462Z,8.63
2019-01-13T16:02:44.088Z,8.53
2019-01-13T16:05:12.760Z,8.50
2019-01-13T16:07:41.366Z,8.40
2019-01-13T16:10:12.958Z,10.20
2019-01-13T16:12:41.599Z,8.60
2019-01-13T16:15:11.851Z,8.70
2019-01-13T16:17:40.357Z,8.50
2019-01-13T16:20:20.707Z,8.63
2019-01-13T16:22:49.248Z,8.63
2019-01-13T16:25:17.873Z,8.43
2019-01-13T16:27:46.624Z,8.30
2019-01-13T16:30:23.697Z,8.30
2019-01-13T16:32:52.341Z,8.40
2019-01-13T16:35:20.862Z,8.50
2019-01-13T16:37:49.452Z,8.70
2019-01-13T16:40:19.749Z,8.90
2019-01-13T16:42:48.574Z,8.43
2019-01-13T16:45:17.859Z,8.23
2019-01-13T16:47:47.487Z,8.50
2019-01-13T16:50:17.917Z,9.40
2019-01-13T16:52:48.854Z,8.93
2019-01-13T16:55:17.735Z,9.00
2019-01-13T16:57:46.249Z,9.13
2019-01-13T17:00:17.915Z,9.13
2019-01-13T17:02:46.719Z,9.30
2019-01-13T17:05:17.220Z,8.70
2019-01-13T17:07:45.899Z,8.90
2019-01-13T17:10:16.718Z,9.37
2019-01-13T17:12:45.358Z,10.47
2019-01-13T17:15:15.881Z,8.60
2019-01-13T17:17:44.753Z,9.33
2019-01-13T17:20:18.179Z,9.33
2019-01-13T17:22:46.812Z,9.10
2019-01-13T17:25:17.685Z,9.90
2019-01-13T17:27:46.308Z,9.57
2019-01-13T17:30:18.284Z,9.33
2019-01-13T17:32:46.888Z,9.50
2019-01-13T17:35:15.539Z,9.60
2019-01-13T17:37:44.078Z,9.20
2019-01-13T17:40:17.731Z,9.33
2019-01-13T17:42:46.348Z,9.70
2019-01-13T17:45:16.940Z,8.50
2019-01-13T17:47:45.968Z,9.60
2019-01-13T17:50:19.603Z,9.47
2019-01-13T17:52:48.253Z,8.50
2019-01-13T17:55:19.134Z,8.20
2019-01-13T17:57:47.813Z,8.10
2019-01-13T18:00:21.916Z,8.33
2019-01-13T18:02:50.356Z,7.93
2019-01-13T18:05:19.117Z,8.10
2019-01-13T18:07:47.614Z,8.37
2019-01-13T18:10:16.148Z,8.90
2019-01-13T18:12:44.621Z,7.80
2019-01-13T18:15:13.471Z,7.70
2019-01-13T18:17:41.996Z,7.47
2019-01-13T18:20:13.606Z,7.87
2019-01-13T18:22:42.263Z,7.80
2019-01-13T18:25:11.108Z,7.93
2019-01-13T18:27:39.705Z,7.70
2019-01-13T18:30:17.153Z,7.53
2019-01-13T18:32:45.810Z,8.13
2019-01-13T18:35:16.548Z,7.20
2019-01-13T18:37:45.267Z,7.50
2019-01-13T18:40:16.340Z,7.33
2019-01-13T18:42:44.983Z,7.90
2019-01-13T18:45:13.872Z,7.77
2019-01-13T18:47:42.447Z,8.40
2019-01-13T18:50:16.358Z,8.33
2019-01-13T18:52:47.483Z,7.90
2019-01-13T18:55:16.280Z,7.97
2019-01-13T18:57:44.944Z,13.43
2019-01-13T19:00:19.173Z,8.80
2019-01-13T19:02:47.861Z,8.00
2019-01-13T19:05:18.247Z,8.33
2019-01-13T19:07:46.804Z,7.90
2019-01-13T19:10:21.786Z,8.57
2019-01-13T19:12:53.420Z,8.13
2019-01-13T19:15:22.116Z,8.93
2019-01-13T19:17:52.529Z,8.07
2019-01-13T19:20:21.203Z,8.60
2019-01-13T19:22:49.796Z,7.90
2019-01-13T19:25:18.687Z,8.03
2019-01-13T19:27:47.199Z,8.10
2019-01-13T19:30:16.475Z,8.73
2019-01-13T19:32:45.074Z,8.00
2019-01-13T19:35:15.808Z,8.70
2019-01-13T19:37:44.363Z,8.67
2019-01-13T19:40:15.041Z,8.10
2019-01-13T19:42:43.641Z,8.77
2019-01-13T19:45:14.952Z,8.50
2019-01-13T19:47:43.610Z,8.47
2019-01-13T19:50:23.448Z,9.23
2019-01-13T19:52:52.080Z,8.67
2019-01-13T19:55:21.092Z,9.20
2019-01-13T19:57:49.872Z,7.87
2019-01-13T20:00:24.004Z,9.13
2019-01-13T20:02:52.707Z,9.20
2019-01-13T20:05:22.589Z,8.47
2019-01-13T20:07:51.513Z,8.50
2019-01-13T20:10:21.127Z,8.53
2019-01-13T20:12:49.743Z,8.00
2019-01-13T20:15:20.781Z,8.63
2019-01-13T20:17:49.810Z,9.00
2019-01-13T20:20:19.810Z,8.40
2019-01-13T20:22:48.622Z,8.23
2019-01-13T20:25:18.558Z,8.73
2019-01-13T20:27:47.505Z,8.17
2019-01-13T20:30:20.867Z,9.87
2019-01-13T20:32:49.674Z,8.80
2019-01-13T20:35:19.302Z,8.70
2019-01-13T20:37:48.228Z,8.20
2019-01-13T20:40:17.517Z,8.83
2019-01-13T20:42:46.052Z,9.17
2019-01-13T20:45:23.384Z,8.30
2019-01-13T20:47:52.065Z,8.50
2019-01-13T20:50:20.553Z,9.00
2019-01-13T20:52:49.201Z,9.20
2019-01-13T20:55:17.854Z,8.80
2019-01-13T20:57:46.577Z,8.77
2019-01-13T21:00:23.700Z,9.57
2019-01-13T21:02:52.462Z,9.03
2019-01-13T21:05:26.546Z,9.20
2019-01-13T21:07:51.625Z,8.60
2019-01-13T21:10:21.267Z,10.00
2019-01-13T21:12:50.023Z,8.80
2019-01-13T21:15:26.819Z,8.77
2019-01-13T21:17:57.584Z,9.77
2019-01-13T21:20:25.631Z,9.23
2019-01-13T21:22:54.225Z,9.13
2019-01-13T21:25:22.823Z,9.37
2019-01-13T21:27:51.884Z,11.13
2019-01-13T21:30:29.230Z,10.87
2019-01-13T21:32:57.977Z,8.80
2019-01-13T21:35:33.501Z,9.20
2019-01-13T21:37:56.905Z,10.30
2019-01-13T21:40:25.519Z,8.43
2019-01-13T21:42:54.093Z,9.57
2019-01-13T21:45:23.758Z,9.40
2019-01-13T21:47:52.369Z,9.87
2019-01-13T21:50:22.832Z,9.40
2019-01-13T21:52:51.572Z,9.07
2019-01-13T21:55:20.543Z,9.00
2019-01-13T21:57:49.203Z,10.17
2019-01-13T22:00:20.069Z,9.47
2019-01-13T22:02:48.665Z,9.73
2019-01-13T22:05:17.281Z,9.10
2019-01-13T22:07:45.886Z,9.60
2019-01-13T22:10:18.444Z,8.97
2019-01-13T22:12:47.078Z,9.90
2019-01-13T22:15:17.381Z,9.57
2019-01-13T22:17:46.012Z,8.90
2019-01-13T22:20:21.746Z,9.80
2019-01-13T22:22:50.851Z,9.20
2019-01-13T22:25:19.427Z,9.57
2019-01-13T22:27:47.940Z,9.13
2019-01-13T22:30:18.430Z,9.30
2019-01-13T22:32:47.054Z,10.13
2019-01-13T22:35:15.779Z,9.30
2019-01-13T22:37:44.433Z,9.43
2019-01-13T22:40:14.953Z,9.23
2019-01-13T22:42:43.505Z,9.20
2019-01-13T22:45:17.312Z,10.93
2019-01-13T22:47:46.098Z,9.70
2019-01-13T22:50:15.977Z,9.40
2019-01-13T22:52:44.653Z,9.13
2019-01-13T22:55:13.272Z,13.00
2019-01-13T22:57:42.000Z,8.90
2019-01-13T23:00:38.328Z,10.57
2019-01-13T23:03:08.526Z,9.60
2019-01-13T23:05:37.344Z,9.40
2019-01-13T23:08:05.910Z,9.23
2019-01-13T23:10:34.534Z,9.03
2019-01-13T23:13:03.063Z,9.60
2019-01-13T23:15:31.544Z,10.47
2019-01-13T23:18:00.023Z,9.80
2019-01-13T23:20:28.596Z,8.83
2019-01-13T23:22:57.130Z,9.53
2019-01-13T23:25:25.577Z,9.80
2019-01-13T23:27:54.107Z,8.90
2019-01-13T23:30:22.581Z,9.30
2019-01-13T23:32:51.229Z,9.70
2019-01-13T23:35:19.764Z,9.60
2019-01-13T23:37:48.398Z,8.90
2019-01-13T23:40:16.956Z,9.50
2019-01-13T23:42:45.614Z,9.27
2019-01-13T23:45:14.161Z,9.07
2019-01-13T23:47:42.654Z,9.40
2019-01-13T23:50:11.448Z,9.13
2019-01-13T23:52:40.001Z,9.50
2019-01-13T23:55:08.602Z,9.43
2019-01-13T23:57:37.155Z,9.40
